sensor_id;sensor_type;location;lat;lon;timestamp;P1;durP1;ratioP1;P2;durP2;ratioP2
14400;SDS011;7285;50.894;5.462;2023-08-24T00:04:08;0.63;;;0.63;;
14400;SDS011;7285;50.894;5.462;2023-08-24T00:06:35;0.60;;;0.60;;
14400;SDS011;7285;50.894;5.462;2023-08-24T00:09:03;0.53;;;0.53;;
14400;SDS011;7285;50.894;5.462;2023-08-24T00:11:30;0.40;;;0.40;;
14400;SDS011;7285;50.894;5.462;2023-08-24T00:13:57;1.80;;;0.80;;
14400;SDS011;7285;50.894;5.462;2023-08-24T00:16:24;0.73;;;0.73;;
14400;SDS011;7285;50.894;5.462;2023-08-24T00:18:51;0.40;;;0.40;;
14400;SDS011;7285;50.894;5.462;2023-08-24T00:21:19;0.70;;;0.70;;
14400;SDS011;7285;50.894;5.462;2023-08-24T00:23:50;0.80;;;0.80;;
14400;SDS011;7285;50.894;5.462;2023-08-24T00:26:17;0.50;;;0.50;;
14400;SDS011;7285;50.894;5.462;2023-08-24T00:28:45;0.50;;;0.50;;
14400;SDS011;7285;50.894;5.462;2023-08-24T00:31:12;0.93;;;0.93;;
14400;SDS011;7285;50.894;5.462;2023-08-24T00:33:41;0.73;;;0.60;;
14400;SDS011;7285;50.894;5.462;2023-08-24T00:36:08;0.80;;;0.80;;
14400;SDS011;7285;50.894;5.462;2023-08-24T00:38:36;0.60;;;0.60;;
14400;SDS011;7285;50.894;5.462;2023-08-24T00:41:03;0.77;;;0.77;;
14400;SDS011;7285;50.894;5.462;2023-08-24T00:43:30;0.70;;;0.70;;
14400;SDS011;7285;50.894;5.462;2023-08-24T00:45:59;0.77;;;0.77;;
14400;SDS011;7285;50.894;5.462;2023-08-24T00:48:29;0.63;;;0.63;;
14400;SDS011;7285;50.894;5.462;2023-08-24T00:50:57;0.80;;;0.80;;
14400;SDS011;7285;50.894;5.462;2023-08-24T00:53:27;0.60;;;0.60;;
14400;SDS011;7285;50.894;5.462;2023-08-24T00:55:57;0.63;;;0.60;;
14400;SDS011;7285;50.894;5.462;2023-08-24T00:58:24;1.13;;;0.87;;
14400;SDS011;7285;50.894;5.462;2023-08-24T01:00:53;0.70;;;0.70;;
14400;SDS011;7285;50.894;5.462;2023-08-24T01:03:21;0.77;;;0.77;;
14400;SDS011;7285;50.894;5.462;2023-08-24T01:05:49;0.60;;;0.60;;
14400;SDS011;7285;50.894;5.462;2023-08-24T01:08:16;0.50;;;0.50;;
14400;SDS011;7285;50.894;5.462;2023-08-24T01:10:45;0.80;;;0.73;;
14400;SDS011;7285;50.894;5.462;2023-08-24T01:13:17;1.10;;;1.00;;
14400;SDS011;7285;50.894;5.462;2023-08-24T01:15:53;0.53;;;0.53;;
14400;SDS011;7285;50.894;5.462;2023-08-24T01:18:26;0.87;;;0.87;;
14400;SDS011;7285;50.894;5.462;2023-08-24T01:20:55;0.83;;;0.83;;
14400;SDS011;7285;50.894;5.462;2023-08-24T01:23:28;0.77;;;0.77;;
14400;SDS011;7285;50.894;5.462;2023-08-24T01:26:11;0.50;;;0.50;;
14400;SDS011;7285;50.894;5.462;2023-08-24T01:28:39;5.73;;;0.90;;
14400;SDS011;7285;50.894;5.462;2023-08-24T01:31:09;0.70;;;0.70;;
14400;SDS011;7285;50.894;5.462;2023-08-24T01:33:36;0.97;;;0.97;;
14400;SDS011;7285;50.894;5.462;2023-08-24T01:36:03;0.93;;;0.93;;
14400;SDS011;7285;50.894;5.462;2023-08-24T01:38:30;0.50;;;0.50;;
14400;SDS011;7285;50.894;5.462;2023-08-24T01:40:59;0.70;;;0.70;;
14400;SDS011;7285;50.894;5.462;2023-08-24T01:43:36;0.87;;;0.87;;
14400;SDS011;7285;50.894;5.462;2023-08-24T01:46:06;1.00;;;0.93;;
14400;SDS011;7285;50.894;5.462;2023-08-24T01:48:34;0.70;;;0.70;;
14400;SDS011;7285;50.894;5.462;2023-08-24T01:51:02;1.07;;;1.03;;
14400;SDS011;7285;50.894;5.462;2023-08-24T01:53:31;1.13;;;1.13;;
14400;SDS011;7285;50.894;5.462;2023-08-24T01:55:58;1.23;;;1.13;;
14400;SDS011;7285;50.894;5.462;2023-08-24T01:58:25;0.83;;;0.83;;
14400;SDS011;7285;50.894;5.462;2023-08-24T02:00:53;0.93;;;0.80;;
14400;SDS011;7285;50.894;5.462;2023-08-24T02:03:24;3.00;;;0.50;;
14400;SDS011;7285;50.894;5.462;2023-08-24T02:05:51;0.70;;;0.70;;
14400;SDS011;7285;50.894;5.462;2023-08-24T02:08:18;0.90;;;0.90;;
14400;SDS011;7285;50.894;5.462;2023-08-24T02:10:45;0.60;;;0.60;;
14400;SDS011;7285;50.894;5.462;2023-08-24T02:13:11;1.23;;;0.90;;
14400;SDS011;7285;50.894;5.462;2023-08-24T02:15:38;0.63;;;0.63;;
14400;SDS011;7285;50.894;5.462;2023-08-24T02:18:07;0.80;;;0.80;;
14400;SDS011;7285;50.894;5.462;2023-08-24T02:20:35;4.13;;;0.90;;
14400;SDS011;7285;50.894;5.462;2023-08-24T02:23:02;0.93;;;0.93;;
14400;SDS011;7285;50.894;5.462;2023-08-24T02:25:29;10.83;;;0.80;;
14400;SDS011;7285;50.894;5.462;2023-08-24T02:27:57;0.60;;;0.60;;
14400;SDS011;7285;50.894;5.462;2023-08-24T02:30:24;0.60;;;0.60;;
14400;SDS011;7285;50.894;5.462;2023-08-24T02:32:51;0.63;;;0.60;;
14400;SDS011;7285;50.894;5.462;2023-08-24T02:35:19;1.00;;;0.80;;
14400;SDS011;7285;50.894;5.462;2023-08-24T02:37:46;1.30;;;1.07;;
14400;SDS011;7285;50.894;5.462;2023-08-24T02:40:14;1.17;;;0.87;;
14400;SDS011;7285;50.894;5.462;2023-08-24T02:42:41;0.60;;;0.60;;
14400;SDS011;7285;50.894;5.462;2023-08-24T02:45:08;0.83;;;0.83;;
14400;SDS011;7285;50.894;5.462;2023-08-24T02:47:36;0.90;;;0.90;;
14400;SDS011;7285;50.894;5.462;2023-08-24T02:50:04;0.77;;;0.77;;
14400;SDS011;7285;50.894;5.462;2023-08-24T02:52:33;0.93;;;0.87;;
14400;SDS011;7285;50.894;5.462;2023-08-24T02:55:01;0.83;;;0.83;;
14400;SDS011;7285;50.894;5.462;2023-08-24T02:57:29;1.57;;;1.10;;
14400;SDS011;7285;50.894;5.462;2023-08-24T02:59:56;1.20;;;0.50;;
14400;SDS011;7285;50.894;5.462;2023-08-24T03:02:22;1.80;;;1.13;;
14400;SDS011;7285;50.894;5.462;2023-08-24T03:04:50;1.00;;;1.00;;
14400;SDS011;7285;50.894;5.462;2023-08-24T03:07:16;1.03;;;0.77;;
14400;SDS011;7285;50.894;5.462;2023-08-24T03:09:46;1.17;;;0.83;;
14400;SDS011;7285;50.894;5.462;2023-08-24T03:12:13;1.23;;;1.10;;
14400;SDS011;7285;50.894;5.462;2023-08-24T03:14:40;0.77;;;0.77;;
14400;SDS011;7285;50.894;5.462;2023-08-24T03:17:07;0.93;;;0.93;;
14400;SDS011;7285;50.894;5.462;2023-08-24T03:19:34;2.60;;;0.93;;
14400;SDS011;7285;50.894;5.462;2023-08-24T03:22:01;1.23;;;0.90;;
14400;SDS011;7285;50.894;5.462;2023-08-24T03:24:29;0.83;;;0.83;;
14400;SDS011;7285;50.894;5.462;2023-08-24T03:26:57;0.90;;;0.90;;
14400;SDS011;7285;50.894;5.462;2023-08-24T03:29:24;1.20;;;1.10;;
14400;SDS011;7285;50.894;5.462;2023-08-24T03:31:51;1.00;;;0.90;;
14400;SDS011;7285;50.894;5.462;2023-08-24T03:34:18;1.20;;;1.10;;
14400;SDS011;7285;50.894;5.462;2023-08-24T03:36:46;1.00;;;1.00;;
14400;SDS011;7285;50.894;5.462;2023-08-24T03:39:13;0.67;;;0.67;;
14400;SDS011;7285;50.894;5.462;2023-08-24T03:41:41;1.13;;;1.03;;
14400;SDS011;7285;50.894;5.462;2023-08-24T03:44:10;1.50;;;1.40;;
14400;SDS011;7285;50.894;5.462;2023-08-24T03:46:37;1.17;;;0.70;;
14400;SDS011;7285;50.894;5.462;2023-08-24T03:49:04;0.97;;;0.90;;
14400;SDS011;7285;50.894;5.462;2023-08-24T03:51:31;0.70;;;0.70;;
14400;SDS011;7285;50.894;5.462;2023-08-24T03:53:58;0.53;;;0.53;;
14400;SDS011;7285;50.894;5.462;2023-08-24T03:56:25;0.83;;;0.83;;
14400;SDS011;7285;50.894;5.462;2023-08-24T03:58:52;0.97;;;0.73;;
14400;SDS011;7285;50.894;5.462;2023-08-24T04:01:21;1.10;;;1.00;;
14400;SDS011;7285;50.894;5.462;2023-08-24T04:03:49;0.80;;;0.70;;
14400;SDS011;7285;50.894;5.462;2023-08-24T04:06:17;1.50;;;0.80;;
14400;SDS011;7285;50.894;5.462;2023-08-24T04:08:44;1.00;;;1.00;;
14400;SDS011;7285;50.894;5.462;2023-08-24T04:11:12;1.50;;;1.40;;
14400;SDS011;7285;50.894;5.462;2023-08-24T04:13:39;1.70;;;1.20;;
14400;SDS011;7285;50.894;5.462;2023-08-24T04:16:06;1.60;;;1.17;;
14400;SDS011;7285;50.894;5.462;2023-08-24T04:18:34;1.07;;;1.07;;
14400;SDS011;7285;50.894;5.462;2023-08-24T04:21:01;1.00;;;1.00;;
14400;SDS011;7285;50.894;5.462;2023-08-24T04:23:30;1.37;;;1.27;;
14400;SDS011;7285;50.894;5.462;2023-08-24T04:25:57;0.87;;;0.87;;
14400;SDS011;7285;50.894;5.462;2023-08-24T04:28:24;2.83;;;1.37;;
14400;SDS011;7285;50.894;5.462;2023-08-24T04:30:51;0.87;;;0.87;;
14400;SDS011;7285;50.894;5.462;2023-08-24T04:33:18;1.40;;;1.30;;
14400;SDS011;7285;50.894;5.462;2023-08-24T04:35:47;0.93;;;0.93;;
14400;SDS011;7285;50.894;5.462;2023-08-24T04:38:15;1.70;;;1.20;;
14400;SDS011;7285;50.894;5.462;2023-08-24T04:40:46;1.10;;;1.10;;
14400;SDS011;7285;50.894;5.462;2023-08-24T04:43:14;3.23;;;1.63;;
14400;SDS011;7285;50.894;5.462;2023-08-24T04:45:43;0.73;;;0.73;;
14400;SDS011;7285;50.894;5.462;2023-08-24T04:48:12;1.17;;;1.10;;
14400;SDS011;7285;50.894;5.462;2023-08-24T04:50:38;0.73;;;0.73;;
14400;SDS011;7285;50.894;5.462;2023-08-24T04:53:07;0.80;;;0.80;;
14400;SDS011;7285;50.894;5.462;2023-08-24T04:55:34;1.20;;;1.10;;
14400;SDS011;7285;50.894;5.462;2023-08-24T04:58:01;1.07;;;1.07;;
14400;SDS011;7285;50.894;5.462;2023-08-24T05:00:28;6.43;;;1.50;;
14400;SDS011;7285;50.894;5.462;2023-08-24T05:02:58;1.13;;;0.97;;
14400;SDS011;7285;50.894;5.462;2023-08-24T05:05:24;3.70;;;1.47;;
14400;SDS011;7285;50.894;5.462;2023-08-24T05:07:53;1.13;;;1.07;;
14400;SDS011;7285;50.894;5.462;2023-08-24T05:10:22;4.67;;;1.43;;
14400;SDS011;7285;50.894;5.462;2023-08-24T05:12:49;1.47;;;1.37;;
14400;SDS011;7285;50.894;5.462;2023-08-24T05:15:16;4.03;;;0.90;;
14400;SDS011;7285;50.894;5.462;2023-08-24T05:17:43;0.77;;;0.77;;
14400;SDS011;7285;50.894;5.462;2023-08-24T05:20:10;0.73;;;0.73;;
14400;SDS011;7285;50.894;5.462;2023-08-24T05:22:37;0.90;;;0.90;;
14400;SDS011;7285;50.894;5.462;2023-08-24T05:25:04;1.60;;;1.10;;
14400;SDS011;7285;50.894;5.462;2023-08-24T05:27:33;1.13;;;1.10;;
14400;SDS011;7285;50.894;5.462;2023-08-24T05:30:00;0.77;;;0.77;;
14400;SDS011;7285;50.894;5.462;2023-08-24T05:32:27;1.20;;;1.10;;
14400;SDS011;7285;50.894;5.462;2023-08-24T05:34:54;0.77;;;0.77;;
14400;SDS011;7285;50.894;5.462;2023-08-24T05:37:21;0.87;;;0.87;;
14400;SDS011;7285;50.894;5.462;2023-08-24T05:39:47;1.50;;;1.40;;
14400;SDS011;7285;50.894;5.462;2023-08-24T05:42:14;0.90;;;0.90;;
14400;SDS011;7285;50.894;5.462;2023-08-24T05:44:43;1.10;;;1.10;;
14400;SDS011;7285;50.894;5.462;2023-08-24T05:47:10;1.27;;;1.20;;
14400;SDS011;7285;50.894;5.462;2023-08-24T05:49:36;1.47;;;1.37;;
14400;SDS011;7285;50.894;5.462;2023-08-24T05:52:03;1.47;;;1.37;;
14400;SDS011;7285;50.894;5.462;2023-08-24T05:54:30;0.93;;;0.93;;
14400;SDS011;7285;50.894;5.462;2023-08-24T05:56:58;1.17;;;1.00;;
14400;SDS011;7285;50.894;5.462;2023-08-24T05:59:25;1.73;;;1.60;;
14400;SDS011;7285;50.894;5.462;2023-08-24T06:01:55;1.27;;;1.17;;
14400;SDS011;7285;50.894;5.462;2023-08-24T06:04:22;1.23;;;1.13;;
14400;SDS011;7285;50.894;5.462;2023-08-24T06:06:48;1.60;;;1.50;;
14400;SDS011;7285;50.894;5.462;2023-08-24T06:09:15;1.20;;;1.03;;
14400;SDS011;7285;50.894;5.462;2023-08-24T06:11:42;1.50;;;1.30;;
14400;SDS011;7285;50.894;5.462;2023-08-24T06:14:09;1.13;;;1.10;;
14400;SDS011;7285;50.894;5.462;2023-08-24T06:16:36;0.70;;;0.70;;
14400;SDS011;7285;50.894;5.462;2023-08-24T06:19:04;3.13;;;1.00;;
14400;SDS011;7285;50.894;5.462;2023-08-24T06:21:31;0.77;;;0.70;;
14400;SDS011;7285;50.894;5.462;2023-08-24T06:23:58;1.80;;;1.23;;
14400;SDS011;7285;50.894;5.462;2023-08-24T06:26:26;1.70;;;1.60;;
14400;SDS011;7285;50.894;5.462;2023-08-24T06:28:53;1.47;;;1.37;;
14400;SDS011;7285;50.894;5.462;2023-08-24T06:31:20;1.00;;;0.87;;
14400;SDS011;7285;50.894;5.462;2023-08-24T06:33:48;2.00;;;1.80;;
14400;SDS011;7285;50.894;5.462;2023-08-24T06:36:17;1.23;;;1.13;;
14400;SDS011;7285;50.894;5.462;2023-08-24T06:38:44;1.00;;;0.90;;
14400;SDS011;7285;50.894;5.462;2023-08-24T06:41:11;1.63;;;1.40;;
14400;SDS011;7285;50.894;5.462;2023-08-24T06:43:38;2.13;;;1.10;;
14400;SDS011;7285;50.894;5.462;2023-08-24T06:46:05;1.40;;;1.30;;
14400;SDS011;7285;50.894;5.462;2023-08-24T06:48:33;1.40;;;1.30;;
14400;SDS011;7285;50.894;5.462;2023-08-24T06:51:00;1.60;;;1.50;;
14400;SDS011;7285;50.894;5.462;2023-08-24T06:53:32;1.23;;;1.13;;
14400;SDS011;7285;50.894;5.462;2023-08-24T06:55:59;2.10;;;1.70;;
14400;SDS011;7285;50.894;5.462;2023-08-24T06:58:26;0.83;;;0.83;;
14400;SDS011;7285;50.894;5.462;2023-08-24T07:00:53;1.43;;;1.33;;
14400;SDS011;7285;50.894;5.462;2023-08-24T07:03:20;1.13;;;1.03;;
14400;SDS011;7285;50.894;5.462;2023-08-24T07:05:49;0.90;;;0.90;;
14400;SDS011;7285;50.894;5.462;2023-08-24T07:08:16;2.50;;;1.30;;
14400;SDS011;7285;50.894;5.462;2023-08-24T07:10:44;2.60;;;1.90;;
14400;SDS011;7285;50.894;5.462;2023-08-24T07:13:11;1.43;;;1.33;;
14400;SDS011;7285;50.894;5.462;2023-08-24T07:15:38;1.13;;;0.77;;
14400;SDS011;7285;50.894;5.462;2023-08-24T07:18:05;1.13;;;0.93;;
14400;SDS011;7285;50.894;5.462;2023-08-24T07:20:34;0.70;;;0.70;;
14400;SDS011;7285;50.894;5.462;2023-08-24T07:23:01;1.43;;;1.20;;
14400;SDS011;7285;50.894;5.462;2023-08-24T07:25:28;0.50;;;0.50;;
14400;SDS011;7285;50.894;5.462;2023-08-24T07:27:56;0.73;;;0.73;;
14400;SDS011;7285;50.894;5.462;2023-08-24T07:30:24;1.00;;;0.90;;
14400;SDS011;7285;50.894;5.462;2023-08-24T07:32:52;0.90;;;0.90;;
14400;SDS011;7285;50.894;5.462;2023-08-24T07:35:19;1.23;;;0.60;;
14400;SDS011;7285;50.894;5.462;2023-08-24T07:37:46;0.70;;;0.70;;
14400;SDS011;7285;50.894;5.462;2023-08-24T07:40:14;0.60;;;0.60;;
14400;SDS011;7285;50.894;5.462;2023-08-24T07:42:45;0.70;;;0.70;;
14400;SDS011;7285;50.894;5.462;2023-08-24T07:45:14;0.50;;;0.50;;
14400;SDS011;7285;50.894;5.462;2023-08-24T07:47:41;5.40;;;0.53;;
14400;SDS011;7285;50.894;5.462;2023-08-24T07:50:09;0.50;;;0.50;;
14400;SDS011;7285;50.894;5.462;2023-08-24T07:52:36;0.80;;;0.70;;
14400;SDS011;7285;50.894;5.462;2023-08-24T07:55:04;0.67;;;0.60;;
14400;SDS011;7285;50.894;5.462;2023-08-24T07:57:32;0.93;;;0.70;;
14400;SDS011;7285;50.894;5.462;2023-08-24T07:59:59;0.60;;;0.60;;
14400;SDS011;7285;50.894;5.462;2023-08-24T08:02:28;0.60;;;0.57;;
14400;SDS011;7285;50.894;5.462;2023-08-24T08:04:57;0.40;;;0.40;;
14400;SDS011;7285;50.894;5.462;2023-08-24T08:07:26;0.80;;;0.80;;
14400;SDS011;7285;50.894;5.462;2023-08-24T08:09:53;2.20;;;0.70;;
14400;SDS011;7285;50.894;5.462;2023-08-24T08:12:21;0.80;;;0.73;;
14400;SDS011;7285;50.894;5.462;2023-08-24T08:14:48;7.43;;;0.50;;
14400;SDS011;7285;50.894;5.462;2023-08-24T08:17:16;0.40;;;0.40;;
14400;SDS011;7285;50.894;5.462;2023-08-24T08:19:44;0.50;;;0.50;;
14400;SDS011;7285;50.894;5.462;2023-08-24T08:22:12;6.85;;;0.50;;
14400;SDS011;7285;50.894;5.462;2023-08-24T08:24:39;0.38;;;0.38;;
14400;SDS011;7285;50.894;5.462;2023-08-24T08:27:05;0.40;;;0.40;;
14400;SDS011;7285;50.894;5.462;2023-08-24T08:29:33;0.40;;;0.40;;
14400;SDS011;7285;50.894;5.462;2023-08-24T08:31:59;0.50;;;0.50;;
14400;SDS011;7285;50.894;5.462;2023-08-24T08:34:26;0.40;;;0.40;;
14400;SDS011;7285;50.894;5.462;2023-08-24T08:36:55;0.63;;;0.50;;
14400;SDS011;7285;50.894;5.462;2023-08-24T08:39:22;0.28;;;0.28;;
14400;SDS011;7285;50.894;5.462;2023-08-24T08:41:49;0.88;;;0.50;;
14400;SDS011;7285;50.894;5.462;2023-08-24T08:44:16;0.43;;;0.43;;
14400;SDS011;7285;50.894;5.462;2023-08-24T08:46:44;0.40;;;0.40;;
14400;SDS011;7285;50.894;5.462;2023-08-24T08:49:12;1.80;;;0.60;;
14400;SDS011;7285;50.894;5.462;2023-08-24T08:51:41;0.52;;;0.52;;
14400;SDS011;7285;50.894;5.462;2023-08-24T08:54:10;2.28;;;0.47;;
14400;SDS011;7285;50.894;5.462;2023-08-24T08:56:38;0.70;;;0.55;;
14400;SDS011;7285;50.894;5.462;2023-08-24T08:59:05;0.63;;;0.50;;
14400;SDS011;7285;50.894;5.462;2023-08-24T09:01:36;0.30;;;0.30;;
14400;SDS011;7285;50.894;5.462;2023-08-24T09:04:03;0.40;;;0.40;;
14400;SDS011;7285;50.894;5.462;2023-08-24T09:06:32;0.73;;;0.50;;
14400;SDS011;7285;50.894;5.462;2023-08-24T09:09:02;0.47;;;0.47;;
14400;SDS011;7285;50.894;5.462;2023-08-24T09:11:32;0.30;;;0.30;;
14400;SDS011;7285;50.894;5.462;2023-08-24T09:13:59;0.40;;;0.40;;
14400;SDS011;7285;50.894;5.462;2023-08-24T09:16:28;0.68;;;0.50;;
14400;SDS011;7285;50.894;5.462;2023-08-24T09:18:55;0.20;;;0.20;;
14400;SDS011;7285;50.894;5.462;2023-08-24T09:21:23;0.28;;;0.28;;
14400;SDS011;7285;50.894;5.462;2023-08-24T09:23:52;0.32;;;0.32;;
14400;SDS011;7285;50.894;5.462;2023-08-24T09:26:26;0.75;;;0.50;;
14400;SDS011;7285;50.894;5.462;2023-08-24T09:28:55;0.45;;;0.45;;
14400;SDS011;7285;50.894;5.462;2023-08-24T09:31:22;0.45;;;0.45;;
14400;SDS011;7285;50.894;5.462;2023-08-24T09:33:49;0.70;;;0.57;;
14400;SDS011;7285;50.894;5.462;2023-08-24T09:36:16;0.80;;;0.50;;
14400;SDS011;7285;50.894;5.462;2023-08-24T09:38:46;0.40;;;0.40;;
14400;SDS011;7285;50.894;5.462;2023-08-24T09:41:17;1.42;;;0.70;;
14400;SDS011;7285;50.894;5.462;2023-08-24T09:43:44;2.25;;;0.45;;
14400;SDS011;7285;50.894;5.462;2023-08-24T09:46:12;0.70;;;0.22;;
14400;SDS011;7285;50.894;5.462;2023-08-24T09:48:45;0.30;;;0.30;;
14400;SDS011;7285;50.894;5.462;2023-08-24T09:51:20;0.32;;;0.32;;
14400;SDS011;7285;50.894;5.462;2023-08-24T09:53:47;0.40;;;0.40;;
14400;SDS011;7285;50.894;5.462;2023-08-24T09:56:14;0.28;;;0.28;;
14400;SDS011;7285;50.894;5.462;2023-08-24T09:58:42;0.50;;;0.50;;
14400;SDS011;7285;50.894;5.462;2023-08-24T10:01:13;0.60;;;0.60;;
14400;SDS011;7285;50.894;5.462;2023-08-24T10:03:41;0.47;;;0.47;;
14400;SDS011;7285;50.894;5.462;2023-08-24T10:06:10;0.22;;;0.22;;
14400;SDS011;7285;50.894;5.462;2023-08-24T10:08:39;0.38;;;0.35;;
14400;SDS011;7285;50.894;5.462;2023-08-24T10:11:10;0.30;;;0.30;;
14400;SDS011;7285;50.894;5.462;2023-08-24T10:13:41;0.80;;;0.40;;
14400;SDS011;7285;50.894;5.462;2023-08-24T10:16:16;1.83;;;0.52;;
14400;SDS011;7285;50.894;5.462;2023-08-24T10:18:46;0.38;;;0.38;;
14400;SDS011;7285;50.894;5.462;2023-08-24T10:21:14;0.50;;;0.50;;
14400;SDS011;7285;50.894;5.462;2023-08-24T10:23:42;0.55;;;0.55;;
14400;SDS011;7285;50.894;5.462;2023-08-24T10:26:11;0.90;;;0.90;;
14400;SDS011;7285;50.894;5.462;2023-08-24T10:28:40;0.30;;;0.30;;
14400;SDS011;7285;50.894;5.462;2023-08-24T10:31:07;0.60;;;0.50;;
14400;SDS011;7285;50.894;5.462;2023-08-24T10:33:36;1.85;;;0.55;;
14400;SDS011;7285;50.894;5.462;2023-08-24T10:36:04;0.60;;;0.60;;
14400;SDS011;7285;50.894;5.462;2023-08-24T10:38:33;1.45;;;0.60;;
14400;SDS011;7285;50.894;5.462;2023-08-24T10:41:05;0.65;;;0.65;;
14400;SDS011;7285;50.894;5.462;2023-08-24T10:43:34;0.77;;;0.77;;
14400;SDS011;7285;50.894;5.462;2023-08-24T10:46:01;1.92;;;1.35;;
14400;SDS011;7285;50.894;5.462;2023-08-24T10:48:29;0.60;;;0.60;;
14400;SDS011;7285;50.894;5.462;2023-08-24T10:51:19;1.33;;;1.15;;
14400;SDS011;7285;50.894;5.462;2023-08-24T10:53:51;0.50;;;0.50;;
14400;SDS011;7285;50.894;5.462;2023-08-24T10:56:19;0.68;;;0.68;;
14400;SDS011;7285;50.894;5.462;2023-08-24T10:58:47;0.55;;;0.55;;
14400;SDS011;7285;50.894;5.462;2023-08-24T11:01:35;6.28;;;0.82;;
14400;SDS011;7285;50.894;5.462;2023-08-24T11:04:05;0.55;;;0.50;;
14400;SDS011;7285;50.894;5.462;2023-08-24T11:06:50;1.07;;;0.93;;
14400;SDS011;7285;50.894;5.462;2023-08-24T11:09:18;0.50;;;0.50;;
14400;SDS011;7285;50.894;5.462;2023-08-24T11:11:54;2.93;;;0.60;;
14400;SDS011;7285;50.894;5.462;2023-08-24T11:14:23;1.50;;;0.60;;
14400;SDS011;7285;50.894;5.462;2023-08-24T11:16:51;0.60;;;0.50;;
14400;SDS011;7285;50.894;5.462;2023-08-24T11:19:19;0.70;;;0.70;;
14400;SDS011;7285;50.894;5.462;2023-08-24T11:21:47;0.93;;;0.50;;
14400;SDS011;7285;50.894;5.462;2023-08-24T11:24:15;0.60;;;0.60;;
14400;SDS011;7285;50.894;5.462;2023-08-24T11:26:43;0.70;;;0.70;;
14400;SDS011;7285;50.894;5.462;2023-08-24T11:29:10;1.27;;;0.80;;
14400;SDS011;7285;50.894;5.462;2023-08-24T11:31:37;0.50;;;0.50;;
14400;SDS011;7285;50.894;5.462;2023-08-24T11:34:07;0.73;;;0.73;;
14400;SDS011;7285;50.894;5.462;2023-08-24T11:36:43;0.73;;;0.70;;
14400;SDS011;7285;50.894;5.462;2023-08-24T11:39:18;0.83;;;0.80;;
14400;SDS011;7285;50.894;5.462;2023-08-24T11:41:56;0.80;;;0.80;;
14400;SDS011;7285;50.894;5.462;2023-08-24T11:44:24;1.80;;;1.30;;
14400;SDS011;7285;50.894;5.462;2023-08-24T11:46:51;0.50;;;0.50;;
14400;SDS011;7285;50.894;5.462;2023-08-24T11:49:18;0.83;;;0.83;;
14400;SDS011;7285;50.894;5.462;2023-08-24T11:51:45;0.50;;;0.50;;
14400;SDS011;7285;50.894;5.462;2023-08-24T11:54:16;1.03;;;1.03;;
14400;SDS011;7285;50.894;5.462;2023-08-24T11:56:44;0.90;;;0.80;;
14400;SDS011;7285;50.894;5.462;2023-08-24T11:59:12;0.70;;;0.70;;
14400;SDS011;7285;50.894;5.462;2023-08-24T12:01:40;1.23;;;1.13;;
14400;SDS011;7285;50.894;5.462;2023-08-24T12:04:08;0.73;;;0.73;;
14400;SDS011;7285;50.894;5.462;2023-08-24T12:06:35;0.67;;;0.67;;
14400;SDS011;7285;50.894;5.462;2023-08-24T12:09:04;0.90;;;0.90;;
14400;SDS011;7285;50.894;5.462;2023-08-24T12:11:36;0.63;;;0.63;;
14400;SDS011;7285;50.894;5.462;2023-08-24T12:14:04;0.63;;;0.63;;
14400;SDS011;7285;50.894;5.462;2023-08-24T12:16:34;0.43;;;0.43;;
14400;SDS011;7285;50.894;5.462;2023-08-24T12:19:02;4.13;;;0.70;;
14400;SDS011;7285;50.894;5.462;2023-08-24T12:21:33;0.57;;;0.57;;
14400;SDS011;7285;50.894;5.462;2023-08-24T12:24:00;0.70;;;0.70;;
14400;SDS011;7285;50.894;5.462;2023-08-24T12:26:30;0.50;;;0.50;;
14400;SDS011;7285;50.894;5.462;2023-08-24T12:29:03;0.40;;;0.40;;
14400;SDS011;7285;50.894;5.462;2023-08-24T12:31:31;0.30;;;0.30;;
14400;SDS011;7285;50.894;5.462;2023-08-24T12:33:59;1.00;;;0.70;;
14400;SDS011;7285;50.894;5.462;2023-08-24T12:36:28;1.80;;;0.80;;
14400;SDS011;7285;50.894;5.462;2023-08-24T12:38:55;0.60;;;0.60;;
14400;SDS011;7285;50.894;5.462;2023-08-24T12:41:22;1.83;;;0.67;;
14400;SDS011;7285;50.894;5.462;2023-08-24T12:43:50;0.50;;;0.50;;
14400;SDS011;7285;50.894;5.462;2023-08-24T12:46:19;4.37;;;1.00;;
14400;SDS011;7285;50.894;5.462;2023-08-24T12:48:46;0.50;;;0.50;;
14400;SDS011;7285;50.894;5.462;2023-08-24T12:51:13;0.70;;;0.70;;
14400;SDS011;7285;50.894;5.462;2023-08-24T12:53:40;0.67;;;0.67;;
14400;SDS011;7285;50.894;5.462;2023-08-24T12:56:07;0.50;;;0.50;;
14400;SDS011;7285;50.894;5.462;2023-08-24T12:58:34;0.37;;;0.37;;
14400;SDS011;7285;50.894;5.462;2023-08-24T13:01:01;0.70;;;0.70;;
14400;SDS011;7285;50.894;5.462;2023-08-24T13:03:30;4.70;;;0.50;;
14400;SDS011;7285;50.894;5.462;2023-08-24T13:05:56;0.50;;;0.50;;
14400;SDS011;7285;50.894;5.462;2023-08-24T13:08:23;4.30;;;0.70;;
14400;SDS011;7285;50.894;5.462;2023-08-24T13:10:51;0.87;;;0.87;;
14400;SDS011;7285;50.894;5.462;2023-08-24T13:13:18;2.90;;;0.77;;
14400;SDS011;7285;50.894;5.462;2023-08-24T13:15:47;1.17;;;0.87;;
14400;SDS011;7285;50.894;5.462;2023-08-24T13:18:15;0.60;;;0.60;;
14400;SDS011;7285;50.894;5.462;2023-08-24T13:20:43;0.67;;;0.67;;
14400;SDS011;7285;50.894;5.462;2023-08-24T13:23:10;0.57;;;0.50;;
14400;SDS011;7285;50.894;5.462;2023-08-24T13:25:37;0.73;;;0.70;;
14400;SDS011;7285;50.894;5.462;2023-08-24T13:28:04;0.50;;;0.50;;
14400;SDS011;7285;50.894;5.462;2023-08-24T13:30:31;0.60;;;0.53;;
14400;SDS011;7285;50.894;5.462;2023-08-24T13:32:58;1.27;;;0.60;;
14400;SDS011;7285;50.894;5.462;2023-08-24T13:35:25;0.50;;;0.50;;
14400;SDS011;7285;50.894;5.462;2023-08-24T13:37:54;0.63;;;0.40;;
14400;SDS011;7285;50.894;5.462;2023-08-24T13:40:21;0.50;;;0.50;;
14400;SDS011;7285;50.894;5.462;2023-08-24T13:42:48;0.43;;;0.30;;
14400;SDS011;7285;50.894;5.462;2023-08-24T13:45:15;4.23;;;0.40;;
14400;SDS011;7285;50.894;5.462;2023-08-24T13:47:42;0.40;;;0.40;;
14400;SDS011;7285;50.894;5.462;2023-08-24T13:50:09;0.50;;;0.50;;
14400;SDS011;7285;50.894;5.462;2023-08-24T13:52:36;0.40;;;0.40;;
14400;SDS011;7285;50.894;5.462;2023-08-24T13:55:06;0.70;;;0.47;;
14400;SDS011;7285;50.894;5.462;2023-08-24T13:57:33;1.07;;;0.97;;
14400;SDS011;7285;50.894;5.462;2023-08-24T14:00:00;0.50;;;0.47;;
14400;SDS011;7285;50.894;5.462;2023-08-24T14:02:29;0.40;;;0.40;;
14400;SDS011;7285;50.894;5.462;2023-08-24T14:04:56;0.50;;;0.50;;
14400;SDS011;7285;50.894;5.462;2023-08-24T14:07:23;0.30;;;0.30;;
14400;SDS011;7285;50.894;5.462;2023-08-24T14:09:50;0.33;;;0.33;;
14400;SDS011;7285;50.894;5.462;2023-08-24T14:12:18;0.70;;;0.70;;
14400;SDS011;7285;50.894;5.462;2023-08-24T14:14:45;0.50;;;0.50;;
14400;SDS011;7285;50.894;5.462;2023-08-24T14:17:12;0.40;;;0.40;;
14400;SDS011;7285;50.894;5.462;2023-08-24T14:19:39;0.30;;;0.30;;
14400;SDS011;7285;50.894;5.462;2023-08-24T14:22:06;0.20;;;0.20;;
14400;SDS011;7285;50.894;5.462;2023-08-24T14:24:33;0.30;;;0.30;;
14400;SDS011;7285;50.894;5.462;2023-08-24T14:27:00;0.67;;;0.67;;
14400;SDS011;7285;50.894;5.462;2023-08-24T14:29:28;0.50;;;0.50;;
14400;SDS011;7285;50.894;5.462;2023-08-24T14:31:55;0.57;;;0.57;;
14400;SDS011;7285;50.894;5.462;2023-08-24T14:34:22;0.90;;;0.30;;
14400;SDS011;7285;50.894;5.462;2023-08-24T14:36:49;0.40;;;0.40;;
14400;SDS011;7285;50.894;5.462;2023-08-24T14:39:16;0.33;;;0.33;;
14400;SDS011;7285;50.894;5.462;2023-08-24T14:41:43;0.37;;;0.37;;
14400;SDS011;7285;50.894;5.462;2023-08-24T14:44:10;0.43;;;0.43;;
14400;SDS011;7285;50.894;5.462;2023-08-24T14:46:38;0.50;;;0.50;;
14400;SDS011;7285;50.894;5.462;2023-08-24T14:49:05;0.40;;;0.40;;
14400;SDS011;7285;50.894;5.462;2023-08-24T14:51:33;0.20;;;0.20;;
14400;SDS011;7285;50.894;5.462;2023-08-24T14:54:00;0.30;;;0.30;;
14400;SDS011;7285;50.894;5.462;2023-08-24T14:56:27;0.50;;;0.50;;
14400;SDS011;7285;50.894;5.462;2023-08-24T14:58:54;0.40;;;0.40;;
14400;SDS011;7285;50.894;5.462;2023-08-24T15:01:21;0.40;;;0.40;;
14400;SDS011;7285;50.894;5.462;2023-08-24T15:03:49;0.40;;;0.40;;
14400;SDS011;7285;50.894;5.462;2023-08-24T15:06:16;0.43;;;0.43;;
14400;SDS011;7285;50.894;5.462;2023-08-24T15:08:44;0.30;;;0.30;;